createdAt,value
2018-11-23T00:00:39.939Z,1005.86
2018-11-23T00:01:39.914Z,1005.85
2018-11-23T00:02:39.885Z,1005.87
2018-11-23T00:03:39.848Z,1005.82
2018-11-23T00:04:39.818Z,1005.86
2018-11-23T00:05:39.797Z,1005.82
2018-11-23T00:06:39.766Z,1005.82
2018-11-23T00:07:39.730Z,1005.83
2018-11-23T00:08:39.697Z,1005.83
2018-11-23T00:09:39.676Z,1005.84
2018-11-23T00:10:39.642Z,1005.83
2018-11-23T00:11:39.609Z,1005.80
2018-11-23T00:12:39.579Z,1005.87
2018-11-23T00:13:39.553Z,1005.83
2018-11-23T00:14:39.525Z,1005.80
2018-11-23T00:15:39.492Z,1005.78
2018-11-23T00:16:39.458Z,1005.79
2018-11-23T00:17:39.435Z,1005.79
2018-11-23T00:18:39.397Z,1005.80
2018-11-23T00:19:39.375Z,1005.82
2018-11-23T00:20:39.340Z,1005.78
2018-11-23T00:21:39.312Z,1005.76
2018-11-23T00:22:39.279Z,1005.79
2018-11-23T00:23:39.251Z,1005.75
2018-11-23T00:24:39.217Z,1005.79
2018-11-23T00:25:39.191Z,1005.79
2018-11-23T00:26:39.160Z,1005.79
2018-11-23T00:27:39.131Z,1005.78
2018-11-23T00:28:39.097Z,1005.79
2018-11-23T00:29:39.073Z,1005.77
2018-11-23T00:30:39.034Z,1005.78
2018-11-23T00:31:39.014Z,1005.82
2018-11-23T00:32:38.983Z,1005.80
2018-11-23T00:33:38.945Z,1005.81
2018-11-23T00:34:38.922Z,1005.80
2018-11-23T00:35:38.889Z,1005.80
2018-11-23T00:36:38.856Z,1005.82
2018-11-23T00:37:38.833Z,1005.83
2018-11-23T00:38:38.795Z,1005.83
2018-11-23T00:39:38.770Z,1005.80
2018-11-23T00:40:38.742Z,1005.77
2018-11-23T00:41:38.706Z,1005.79
2018-11-23T00:42:38.685Z,1005.80
2018-11-23T00:43:38.647Z,1005.77
2018-11-23T00:44:38.619Z,1005.79
2018-11-23T00:45:43.060Z,1005.79
2018-11-23T00:46:38.555Z,1005.77
2018-11-23T00:47:38.528Z,1005.77
2018-11-23T00:48:38.579Z,1005.76
2018-11-23T00:49:38.472Z,1005.79
2018-11-23T00:50:38.437Z,1005.81
2018-11-23T00:51:38.406Z,1005.80
2018-11-23T00:52:38.386Z,1005.79
2018-11-23T00:53:38.343Z,1005.82
2018-11-23T00:54:38.314Z,1005.80
2018-11-23T00:55:38.289Z,1005.83
2018-11-23T00:56:38.255Z,1005.82
2018-11-23T00:57:38.229Z,1005.82
2018-11-23T00:58:38.200Z,1005.79
2018-11-23T00:59:38.161Z,1005.78
2018-11-23T01:00:38.137Z,1005.78
2018-11-23T01:01:38.107Z,1005.79
2018-11-23T01:02:38.070Z,1005.77
2018-11-23T01:03:38.048Z,1005.77
2018-11-23T01:04:38.019Z,1005.79
2018-11-23T01:05:37.982Z,1005.78
2018-11-23T01:06:37.977Z,1005.79
2018-11-23T01:07:37.926Z,1005.80
2018-11-23T01:08:37.897Z,1005.83
2018-11-23T01:09:37.870Z,1005.83
2018-11-23T01:10:37.843Z,1005.80
2018-11-23T01:11:37.809Z,1005.81
2018-11-23T01:12:37.770Z,1005.82
2018-11-23T01:13:37.749Z,1005.85
2018-11-23T01:14:37.717Z,1005.83
2018-11-23T01:15:37.685Z,1005.84
2018-11-23T01:16:37.655Z,1005.87
2018-11-23T01:17:37.628Z,1005.85
2018-11-23T01:18:37.598Z,1005.88
2018-11-23T01:19:37.566Z,1005.89
2018-11-23T01:20:37.529Z,1005.88
2018-11-23T01:21:37.506Z,1005.89
2018-11-23T01:22:37.469Z,1005.92
2018-11-23T01:23:37.450Z,1005.90
2018-11-23T01:24:37.414Z,1005.90
2018-11-23T01:25:37.386Z,1005.89
2018-11-23T01:26:37.352Z,1005.89
2018-11-23T01:27:37.327Z,1005.88
2018-11-23T01:28:37.294Z,1005.91
2018-11-23T01:29:37.266Z,1005.90
2018-11-23T01:30:37.231Z,1005.89
2018-11-23T01:31:37.206Z,1005.92
2018-11-23T01:32:37.169Z,1005.91
2018-11-23T01:33:37.149Z,1005.94
2018-11-23T01:34:37.110Z,1005.94
2018-11-23T01:35:37.082Z,1005.92
2018-11-23T01:36:37.068Z,1005.93
2018-11-23T01:37:37.024Z,1005.95
2018-11-23T01:38:36.991Z,1005.92
2018-11-23T01:39:36.968Z,1005.91
2018-11-23T01:40:36.936Z,1005.91
2018-11-23T01:41:36.903Z,1005.93
2018-11-23T01:42:36.876Z,1005.95
2018-11-23T01:43:36.841Z,1005.91
2018-11-23T01:44:36.822Z,1005.92
2018-11-23T01:45:36.785Z,1005.92
2018-11-23T01:46:36.755Z,1005.96
2018-11-23T01:47:36.728Z,1005.97
2018-11-23T01:48:36.691Z,1005.92
2018-11-23T01:49:36.666Z,1005.93
2018-11-23T01:50:36.632Z,1005.96
2018-11-23T01:51:36.606Z,1005.93
2018-11-23T01:52:36.573Z,1005.88
2018-11-23T01:53:36.591Z,1005.89
2018-11-23T01:54:36.523Z,1005.87
2018-11-23T01:55:36.506Z,1005.90
2018-11-23T01:56:36.461Z,1005.86
2018-11-23T01:57:36.419Z,1005.87
2018-11-23T01:58:36.397Z,1005.90
2018-11-23T01:59:36.359Z,1005.88
2018-11-23T02:00:36.355Z,1005.91
2018-11-23T02:01:36.306Z,1005.87
2018-11-23T02:02:36.275Z,1005.88
2018-11-23T02:03:36.236Z,1005.91
2018-11-23T02:04:36.213Z,1005.96
2018-11-23T02:05:36.180Z,1005.96
2018-11-23T02:06:36.151Z,1005.96
2018-11-23T02:07:36.125Z,1005.94
2018-11-23T02:08:36.096Z,1005.93
2018-11-23T02:09:36.058Z,1005.96
2018-11-23T02:10:36.029Z,1005.91
2018-11-23T02:11:36.001Z,1005.91
2018-11-23T02:12:35.975Z,1005.92
2018-11-23T02:13:35.939Z,1005.93
2018-11-23T02:14:35.907Z,1005.97
2018-11-23T02:15:35.884Z,1005.98
2018-11-23T02:16:35.853Z,1005.93
2018-11-23T02:17:35.828Z,1005.93
2018-11-23T02:18:35.787Z,1005.95
2018-11-23T02:19:35.763Z,1005.95
2018-11-23T02:20:35.734Z,1005.96
2018-11-23T02:21:35.696Z,1006.01
2018-11-23T02:22:35.671Z,1005.99
2018-11-23T02:23:35.635Z,1005.96
2018-11-23T02:24:35.612Z,1005.99
2018-11-23T02:25:35.579Z,1006.01
2018-11-23T02:26:35.544Z,1006.07
2018-11-23T02:27:35.522Z,1006.04
2018-11-23T02:28:35.494Z,1006.03
2018-11-23T02:29:35.457Z,1006.02
2018-11-23T02:30:35.428Z,1005.99
2018-11-23T02:31:35.399Z,1006.00
2018-11-23T02:32:35.373Z,1006.02
2018-11-23T02:33:35.342Z,1005.96
2018-11-23T02:34:35.306Z,1005.99
2018-11-23T02:35:35.279Z,1005.97
2018-11-23T02:36:35.252Z,1005.90
2018-11-23T02:37:35.215Z,1005.94
2018-11-23T02:38:35.183Z,1005.95
2018-11-23T02:39:35.155Z,1005.97
2018-11-23T02:40:35.133Z,1006.00
2018-11-23T02:41:35.097Z,1005.97
2018-11-23T02:42:35.071Z,1005.99
2018-11-23T02:43:35.035Z,1005.97
2018-11-23T02:44:35.002Z,1006.03
2018-11-23T02:45:34.980Z,1006.03
2018-11-23T02:46:34.941Z,1006.01
2018-11-23T02:47:34.921Z,1006.00
2018-11-23T02:48:34.882Z,1006.01
2018-11-23T02:49:34.860Z,1006.01
2018-11-23T02:50:34.826Z,1005.99
2018-11-23T02:51:34.800Z,1005.99
2018-11-23T02:52:34.762Z,1005.99
2018-11-23T02:53:34.740Z,1005.96
2018-11-23T02:54:34.704Z,1005.95
2018-11-23T02:55:34.679Z,1005.97
2018-11-23T02:56:34.653Z,1005.94
2018-11-23T02:57:34.611Z,1005.90
2018-11-23T02:58:34.587Z,1005.90
2018-11-23T02:59:34.556Z,1005.90
2018-11-23T03:00:34.524Z,1005.88
2018-11-23T03:01:34.500Z,1005.89
2018-11-23T03:02:34.465Z,1005.86
2018-11-23T03:03:34.431Z,1005.90
2018-11-23T03:04:34.405Z,1005.90
2018-11-23T03:05:34.371Z,1005.81
2018-11-23T03:06:34.340Z,1005.82
2018-11-23T03:07:34.317Z,1005.86
2018-11-23T03:08:34.281Z,1005.87
2018-11-23T03:09:34.255Z,1005.87
2018-11-23T03:10:34.228Z,1005.87
2018-11-23T03:11:34.187Z,1005.90
2018-11-23T03:12:34.168Z,1005.89
2018-11-23T03:13:34.133Z,1005.93
2018-11-23T03:14:34.102Z,1005.88
2018-11-23T03:15:34.069Z,1005.86
2018-11-23T03:16:34.045Z,1005.84
2018-11-23T03:17:34.006Z,1005.86
2018-11-23T03:18:33.979Z,1005.83
2018-11-23T03:19:33.945Z,1005.84
2018-11-23T03:20:33.919Z,1005.81
2018-11-23T03:21:33.890Z,1005.83
2018-11-23T03:22:33.861Z,1005.73
2018-11-23T03:23:33.826Z,1005.76
2018-11-23T03:24:33.795Z,1005.75
2018-11-23T03:25:33.810Z,1005.70
2018-11-23T03:26:33.737Z,1005.72
2018-11-23T03:27:33.705Z,1005.68
2018-11-23T03:28:33.674Z,1005.68
2018-11-23T03:29:33.648Z,1005.65
2018-11-23T03:30:33.612Z,1005.65
2018-11-23T03:31:33.589Z,1005.61
2018-11-23T03:32:33.551Z,1005.66
2018-11-23T03:33:33.530Z,1005.64
2018-11-23T03:34:33.495Z,1005.60
2018-11-23T03:35:33.470Z,1005.60
2018-11-23T03:36:33.436Z,1005.63
2018-11-23T03:37:33.400Z,1005.60
2018-11-23T03:38:33.372Z,1005.60
2018-11-23T03:39:34.114Z,1005.61
2018-11-23T03:40:33.316Z,1005.55
2018-11-23T03:41:33.277Z,1005.58
2018-11-23T03:42:33.254Z,1005.55
2018-11-23T03:43:33.222Z,1005.57
2018-11-23T03:44:33.191Z,1005.55
2018-11-23T03:45:33.159Z,1005.51
2018-11-23T03:46:33.123Z,1005.53
2018-11-23T03:47:33.101Z,1005.52
2018-11-23T03:48:33.070Z,1005.49
2018-11-23T03:49:33.038Z,1005.49
2018-11-23T03:50:33.011Z,1005.50
2018-11-23T03:51:32.972Z,1005.52
2018-11-23T03:52:32.959Z,1005.57
2018-11-23T03:53:32.929Z,1005.52
2018-11-23T03:54:32.891Z,1005.51
2018-11-23T03:55:32.851Z,1005.51
2018-11-23T03:56:32.821Z,1005.53
2018-11-23T03:57:32.800Z,1005.53
2018-11-23T03:58:32.760Z,1005.53
2018-11-23T03:59:32.739Z,1005.55
2018-11-23T04:00:32.701Z,1005.51
2018-11-23T04:01:32.673Z,1005.51
2018-11-23T04:02:32.645Z,1005.52
2018-11-23T04:03:32.606Z,1005.52
2018-11-23T04:04:32.583Z,1005.50
2018-11-23T04:05:32.549Z,1005.51
2018-11-23T04:06:32.574Z,1005.52
2018-11-23T04:07:32.494Z,1005.55
2018-11-23T04:08:32.459Z,1005.49
2018-11-23T04:09:32.427Z,1005.46
2018-11-23T04:10:32.393Z,1005.47
2018-11-23T04:11:32.371Z,1005.45
2018-11-23T04:12:32.336Z,1005.43
2018-11-23T04:13:32.308Z,1005.45
2018-11-23T04:14:32.279Z,1005.45
2018-11-23T04:15:32.252Z,1005.44
2018-11-23T04:16:32.213Z,1005.40
2018-11-23T04:17:32.181Z,1005.41
2018-11-23T04:18:32.152Z,1005.42
2018-11-23T04:19:32.126Z,1005.39
2018-11-23T04:20:32.090Z,1005.43
2018-11-23T04:21:32.067Z,1005.42
2018-11-23T04:22:32.026Z,1005.43
2018-11-23T04:23:32.000Z,1005.45
2018-11-23T04:24:31.970Z,1005.45
2018-11-23T04:25:31.944Z,1005.47
2018-11-23T04:26:31.904Z,1005.43
2018-11-23T04:27:31.881Z,1005.44
2018-11-23T04:28:31.852Z,1005.46
2018-11-23T04:29:31.812Z,1005.44
2018-11-23T04:30:31.789Z,1005.45
2018-11-23T04:31:31.759Z,1005.42
2018-11-23T04:32:31.727Z,1005.49
2018-11-23T04:33:31.698Z,1005.45
2018-11-23T04:34:31.667Z,1005.47
2018-11-23T04:35:31.631Z,1005.46
2018-11-23T04:36:31.606Z,1005.41
2018-11-23T04:37:31.570Z,1005.41
2018-11-23T04:38:31.548Z,1005.39
2018-11-23T04:39:31.514Z,1005.41
2018-11-23T04:40:31.483Z,1005.39
2018-11-23T04:41:31.449Z,1005.42
2018-11-23T04:42:31.420Z,1005.43
2018-11-23T04:43:31.391Z,1005.40
2018-11-23T04:44:31.365Z,1005.36
2018-11-23T04:45:31.338Z,1005.33
2018-11-23T04:46:31.306Z,1005.36
2018-11-23T04:47:31.264Z,1005.32
2018-11-23T04:48:31.239Z,1005.30
2018-11-23T04:49:31.201Z,1005.29
2018-11-23T04:50:31.171Z,1005.28
2018-11-23T04:51:31.146Z,1005.34
2018-11-23T04:52:31.111Z,1005.33
2018-11-23T04:53:32.574Z,1005.36
2018-11-23T04:54:31.099Z,1005.36
2018-11-23T04:55:31.019Z,1005.39
2018-11-23T04:56:30.988Z,1005.40
2018-11-23T04:57:30.966Z,1005.39
2018-11-23T04:58:30.932Z,1005.35
2018-11-23T04:59:30.897Z,1005.37
2018-11-23T05:00:30.873Z,1005.36
2018-11-23T05:01:30.834Z,1005.36
2018-11-23T05:02:30.805Z,1005.39
2018-11-23T05:03:30.778Z,1005.38
2018-11-23T05:04:30.747Z,1005.37
2018-11-23T05:05:30.778Z,1005.35
2018-11-23T05:06:30.681Z,1005.31
2018-11-23T05:07:30.652Z,1005.35
2018-11-23T05:08:30.624Z,1005.38
2018-11-23T05:09:30.589Z,1005.40
2018-11-23T05:10:30.606Z,1005.37
2018-11-23T05:11:30.535Z,1005.34
2018-11-23T05:12:30.516Z,1005.38
2018-11-23T05:13:30.466Z,1005.31
2018-11-23T05:14:30.463Z,1005.36
2018-11-23T05:15:30.413Z,1005.33
2018-11-23T05:16:30.373Z,1005.30
2018-11-23T05:17:30.353Z,1005.29
2018-11-23T05:18:30.318Z,1005.25
2018-11-23T05:19:30.285Z,1005.31
2018-11-23T05:20:30.258Z,1005.26
2018-11-23T05:21:30.249Z,1005.27
2018-11-23T05:22:30.191Z,1005.26
2018-11-23T05:23:30.189Z,1005.27
2018-11-23T05:24:30.133Z,1005.24
2018-11-23T05:25:30.100Z,1005.20
2018-11-23T05:26:30.075Z,1005.23
2018-11-23T05:27:30.038Z,1005.22
2018-11-23T05:28:30.006Z,1005.24
2018-11-23T05:29:29.984Z,1005.23
2018-11-23T05:30:29.952Z,1005.21
2018-11-23T05:31:29.923Z,1005.21
2018-11-23T05:32:29.893Z,1005.20
2018-11-23T05:33:29.859Z,1005.21
2018-11-23T05:34:29.832Z,1005.18
2018-11-23T05:35:29.793Z,1005.18
2018-11-23T05:36:29.764Z,1005.15
2018-11-23T05:37:29.734Z,1005.20
2018-11-23T05:38:29.704Z,1005.21
2018-11-23T05:39:29.689Z,1005.19
2018-11-23T05:40:29.651Z,1005.21
2018-11-23T05:41:29.616Z,1005.17
2018-11-23T05:42:29.602Z,1005.20
2018-11-23T05:43:29.547Z,1005.17
2018-11-23T05:44:29.543Z,1005.17
2018-11-23T05:45:29.486Z,1005.17
2018-11-23T05:46:29.469Z,1005.13
2018-11-23T05:47:29.430Z,1005.13
2018-11-23T05:48:29.397Z,1005.15
2018-11-23T05:49:29.373Z,1005.14
2018-11-23T05:50:29.339Z,1005.11
2018-11-23T05:51:29.304Z,1005.15
2018-11-23T05:52:29.281Z,1005.17
2018-11-23T05:53:29.248Z,1005.16
2018-11-23T05:54:29.219Z,1005.18
2018-11-23T05:55:29.181Z,1005.16
2018-11-23T05:56:29.156Z,1005.14
2018-11-23T05:57:29.122Z,1005.19
2018-11-23T05:58:29.094Z,1005.18
2018-11-23T05:59:29.068Z,1005.17
2018-11-23T06:00:29.031Z,1005.20
2018-11-23T06:01:29.034Z,1005.23
2018-11-23T06:02:28.971Z,1005.23
2018-11-23T06:03:28.938Z,1005.17
2018-11-23T06:04:28.913Z,1005.18
2018-11-23T06:05:28.876Z,1005.17
2018-11-23T06:06:28.849Z,1005.17
2018-11-23T06:07:28.818Z,1005.15
2018-11-23T06:08:28.799Z,1005.22
2018-11-23T06:09:28.767Z,1005.27
2018-11-23T06:10:28.723Z,1005.24
2018-11-23T06:11:28.699Z,1005.25
2018-11-23T06:12:28.666Z,1005.29
2018-11-23T06:13:28.636Z,1005.23
2018-11-23T06:14:28.601Z,1005.22
2018-11-23T06:15:28.568Z,1005.13
2018-11-23T06:16:28.546Z,1005.15
2018-11-23T06:17:28.508Z,1005.15
2018-11-23T06:18:28.479Z,1005.19
2018-11-23T06:19:28.449Z,1005.18
2018-11-23T06:20:28.415Z,1005.23
2018-11-23T06:21:28.393Z,1005.22
2018-11-23T06:22:28.357Z,1005.22
2018-11-23T06:23:28.324Z,1005.19
2018-11-23T06:24:32.069Z,1005.18
2018-11-23T06:25:28.262Z,1005.16
2018-11-23T06:26:28.238Z,1005.14
2018-11-23T06:27:28.205Z,1005.12
2018-11-23T06:28:28.169Z,1005.15
2018-11-23T06:29:28.151Z,1005.09
2018-11-23T06:30:28.112Z,1005.12
2018-11-23T06:31:28.079Z,1005.10
2018-11-23T06:32:28.053Z,1005.08
2018-11-23T06:33:28.017Z,1005.07
2018-11-23T06:34:27.990Z,1005.05
2018-11-23T06:35:27.957Z,1005.06
2018-11-23T06:36:27.930Z,1005.08
2018-11-23T06:37:27.899Z,1005.10
2018-11-23T06:38:27.874Z,1005.11
2018-11-23T06:39:27.858Z,1005.09
2018-11-23T06:40:27.800Z,1005.08
2018-11-23T06:41:27.790Z,1005.07
2018-11-23T06:42:27.765Z,1005.05
2018-11-23T06:43:27.722Z,1005.05
2018-11-23T06:44:27.694Z,1005.02
2018-11-23T06:45:27.646Z,1005.02
2018-11-23T06:46:27.618Z,1005.03
2018-11-23T06:47:27.590Z,1005.07
2018-11-23T06:48:27.561Z,1005.06
2018-11-23T06:49:27.526Z,1005.04
2018-11-23T06:50:27.494Z,1005.06
2018-11-23T06:51:27.466Z,1005.07
2018-11-23T06:52:27.435Z,1005.07
2018-11-23T06:53:27.409Z,1005.08
2018-11-23T06:54:27.374Z,1005.06
2018-11-23T06:55:27.342Z,1005.05
2018-11-23T06:56:27.320Z,1005.04
2018-11-23T06:57:27.278Z,1005.07
2018-11-23T06:58:27.254Z,1005.05
2018-11-23T06:59:27.215Z,1005.07
2018-11-23T07:00:27.189Z,1005.07
2018-11-23T07:01:27.540Z,1005.08
2018-11-23T07:02:27.125Z,1005.12
2018-11-23T07:03:27.096Z,1005.14
2018-11-23T07:04:27.070Z,1005.21
2018-11-23T07:05:27.041Z,1005.25
2018-11-23T07:06:27.007Z,1005.23
2018-11-23T07:07:26.973Z,1005.26
2018-11-23T07:08:26.943Z,1005.17
2018-11-23T07:09:26.918Z,1005.16
2018-11-23T07:10:26.887Z,1005.14
2018-11-23T07:11:26.851Z,1005.15
2018-11-23T07:12:26.822Z,1005.14
2018-11-23T07:13:26.799Z,1005.15
2018-11-23T07:14:26.758Z,1005.16
2018-11-23T07:15:26.734Z,1005.16
2018-11-23T07:16:26.788Z,1005.21
2018-11-23T07:17:26.669Z,1005.22
2018-11-23T07:18:26.640Z,1005.22
2018-11-23T07:19:26.606Z,1005.22
2018-11-23T07:20:26.581Z,1005.23
2018-11-23T07:21:26.541Z,1005.22
2018-11-23T07:22:26.517Z,1005.23
2018-11-23T07:23:26.541Z,1005.24
2018-11-23T07:24:26.455Z,1005.23
2018-11-23T07:25:26.420Z,1005.25
2018-11-23T07:26:26.395Z,1005.28
2018-11-23T07:27:26.363Z,1005.27
2018-11-23T07:28:26.336Z,1005.26
2018-11-23T07:29:26.295Z,1005.26
2018-11-23T07:30:26.272Z,1005.22
2018-11-23T07:31:26.233Z,1005.25
2018-11-23T07:32:26.205Z,1005.29
2018-11-23T07:33:26.183Z,1005.28
2018-11-23T07:34:26.144Z,1005.28
2018-11-23T07:35:26.125Z,1005.32
2018-11-23T07:36:26.088Z,1005.34
2018-11-23T07:37:26.054Z,1005.31
2018-11-23T07:38:26.030Z,1005.31
2018-11-23T07:39:25.995Z,1005.33
2018-11-23T07:40:25.964Z,1005.35
2018-11-23T07:41:25.937Z,1005.37
2018-11-23T07:42:25.902Z,1005.37
2018-11-23T07:43:25.874Z,1005.36
2018-11-23T07:44:25.845Z,1005.35
2018-11-23T07:45:25.811Z,1005.33
2018-11-23T07:46:25.783Z,1005.36
2018-11-23T07:47:25.757Z,1005.36
2018-11-23T07:48:25.719Z,1005.36
2018-11-23T07:49:25.693Z,1005.40
2018-11-23T07:50:25.663Z,1005.36
2018-11-23T07:51:25.625Z,1005.38
2018-11-23T07:52:25.606Z,1005.34
2018-11-23T07:53:25.568Z,1005.31
2018-11-23T07:54:25.536Z,1005.32
2018-11-23T07:55:25.511Z,1005.36
2018-11-23T07:56:25.475Z,1005.32
2018-11-23T07:57:25.450Z,1005.35
2018-11-23T07:58:25.419Z,1005.34
2018-11-23T07:59:25.384Z,1005.33
2018-11-23T08:00:25.355Z,1005.31
2018-11-23T08:01:25.327Z,1005.36
2018-11-23T08:02:25.298Z,1005.36
2018-11-23T08:03:25.263Z,1005.33
2018-11-23T08:04:25.238Z,1005.33
2018-11-23T08:05:25.211Z,1005.33
2018-11-23T08:06:25.174Z,1005.30
2018-11-23T08:07:25.163Z,1005.27
2018-11-23T08:08:25.134Z,1005.27
2018-11-23T08:09:25.088Z,1005.23
2018-11-23T08:10:25.056Z,1005.19
2018-11-23T08:11:25.021Z,1005.26
2018-11-23T08:12:24.996Z,1005.32
2018-11-23T08:13:24.963Z,1005.32
2018-11-23T08:14:24.935Z,1005.35
2018-11-23T08:15:24.898Z,1005.30
2018-11-23T08:16:24.874Z,1005.27
2018-11-23T08:17:24.842Z,1005.22
2018-11-23T08:18:24.809Z,1005.26
2018-11-23T08:19:24.778Z,1005.23
2018-11-23T08:20:24.751Z,1005.28
2018-11-23T08:21:24.714Z,1005.23
2018-11-23T08:22:24.710Z,1005.26
2018-11-23T08:23:24.657Z,1005.28
2018-11-23T08:24:24.633Z,1005.29
2018-11-23T08:25:24.595Z,1005.21
2018-11-23T08:26:24.573Z,1005.24
2018-11-23T08:27:24.532Z,1005.22
2018-11-23T08:28:24.508Z,1005.23
2018-11-23T08:29:24.476Z,1005.22
2018-11-23T08:30:24.451Z,1005.23
2018-11-23T08:31:24.420Z,1005.19
2018-11-23T08:32:24.383Z,1005.19
2018-11-23T08:33:24.357Z,1005.17
2018-11-23T08:34:24.329Z,1005.20
2018-11-23T08:35:24.296Z,1005.22
2018-11-23T08:36:24.263Z,1005.23
2018-11-23T08:37:24.238Z,1005.22
2018-11-23T08:38:24.211Z,1005.19
2018-11-23T08:39:24.192Z,1005.20
2018-11-23T08:40:24.143Z,1005.24
2018-11-23T08:41:24.115Z,1005.18
2018-11-23T08:42:24.097Z,1005.19
2018-11-23T08:43:24.055Z,1005.18
2018-11-23T08:44:24.026Z,1005.22
2018-11-23T08:45:23.993Z,1005.20
2018-11-23T08:46:23.967Z,1005.23
2018-11-23T08:47:23.944Z,1005.17
2018-11-23T08:48:23.903Z,1005.21
2018-11-23T08:49:23.874Z,1005.15
2018-11-23T08:50:23.882Z,1005.10
2018-11-23T08:51:23.930Z,1005.13
2018-11-23T08:52:23.779Z,1005.07
2018-11-23T08:53:27.891Z,1005.09
2018-11-23T08:54:23.722Z,1005.10
2018-11-23T08:55:23.696Z,1005.10
2018-11-23T08:56:23.659Z,1005.15
2018-11-23T08:57:23.636Z,1005.17
2018-11-23T08:58:23.608Z,1005.20
2018-11-23T08:59:23.575Z,1005.23
2018-11-23T09:00:23.542Z,1005.24
2018-11-23T09:01:23.508Z,1005.22
2018-11-23T09:02:23.487Z,1005.18
2018-11-23T09:03:23.448Z,1005.19
2018-11-23T09:04:23.427Z,1005.23
2018-11-23T09:05:23.396Z,1005.21
2018-11-23T09:06:23.364Z,1005.23
2018-11-23T09:07:23.335Z,1005.23
2018-11-23T09:08:23.305Z,1005.31
2018-11-23T09:09:23.269Z,1005.31
2018-11-23T09:10:23.246Z,1005.33
2018-11-23T09:11:23.216Z,1005.32
2018-11-23T09:12:23.185Z,1005.35
2018-11-23T09:13:23.383Z,1005.32
2018-11-23T09:14:23.119Z,1005.31
2018-11-23T09:15:23.097Z,1005.30
2018-11-23T09:16:23.058Z,1005.28
2018-11-23T09:17:23.036Z,1005.25
2018-11-23T09:18:23.003Z,1005.27
2018-11-23T09:19:22.971Z,1005.22
2018-11-23T09:20:22.940Z,1005.23
2018-11-23T09:21:22.919Z,1005.25
2018-11-23T09:22:23.475Z,1005.24
2018-11-23T09:23:22.853Z,1005.21
2018-11-23T09:24:22.823Z,1005.24
2018-11-23T09:25:22.797Z,1005.22
2018-11-23T09:26:22.785Z,1005.21
2018-11-23T09:27:22.741Z,1005.22
2018-11-23T09:28:22.703Z,1005.19
2018-11-23T09:29:22.678Z,1005.18
2018-11-23T09:30:22.643Z,1005.19
2018-11-23T09:31:22.619Z,1005.19
2018-11-23T09:32:22.590Z,1005.16
2018-11-23T09:33:22.553Z,1005.17
2018-11-23T09:34:22.533Z,1005.14
2018-11-23T09:35:22.511Z,1005.12
2018-11-23T09:36:22.465Z,1005.08
2018-11-23T09:37:22.436Z,1005.05
2018-11-23T09:38:22.489Z,1005.09
2018-11-23T09:39:22.375Z,1005.11
2018-11-23T09:40:22.353Z,1005.14
2018-11-23T09:41:22.321Z,1005.13
2018-11-23T09:42:22.291Z,1005.15
2018-11-23T09:43:22.259Z,1005.18
2018-11-23T09:44:22.232Z,1005.23
2018-11-23T09:45:22.194Z,1005.19
2018-11-23T09:46:22.178Z,1005.21
2018-11-23T09:47:22.140Z,1005.18
2018-11-23T09:48:22.107Z,1005.17
2018-11-23T09:49:22.291Z,1005.20
2018-11-23T09:50:22.046Z,1005.18
2018-11-23T09:51:22.030Z,1005.20
2018-11-23T09:52:21.990Z,1005.17
2018-11-23T09:53:21.957Z,1005.13
2018-11-23T09:54:21.970Z,1005.14
2018-11-23T09:55:21.898Z,1005.14
2018-11-23T09:56:21.868Z,1005.11
2018-11-23T09:57:21.861Z,1005.12
2018-11-23T09:58:21.813Z,1005.15
2018-11-23T09:59:21.788Z,1005.11
2018-11-23T10:00:21.754Z,1005.10
2018-11-23T10:01:21.733Z,1005.09
2018-11-23T10:02:21.730Z,1005.10
2018-11-23T10:03:21.672Z,1005.07
2018-11-23T10:04:21.642Z,1005.07
2018-11-23T10:05:21.606Z,1005.07
2018-11-23T10:06:21.583Z,1005.05
2018-11-23T10:07:21.553Z,1005.09
2018-11-23T10:08:21.522Z,1005.02
2018-11-23T10:09:21.489Z,1005.05
2018-11-23T10:10:21.462Z,1005.03
2018-11-23T10:11:21.433Z,1005.02
2018-11-23T10:12:21.402Z,1005.02
2018-11-23T10:13:21.371Z,1004.97
2018-11-23T10:14:21.347Z,1004.97
2018-11-23T10:15:21.315Z,1005.00
2018-11-23T10:16:21.291Z,1004.95
2018-11-23T10:17:21.260Z,1004.96
2018-11-23T10:18:21.234Z,1004.95
2018-11-23T10:19:21.193Z,1004.95
2018-11-23T10:20:21.183Z,1004.92
2018-11-23T10:21:21.138Z,1004.91
2018-11-23T10:22:21.108Z,1004.92
2018-11-23T10:23:21.092Z,1004.98
2018-11-23T10:24:21.051Z,1004.94
2018-11-23T10:25:21.025Z,1004.92
2018-11-23T10:26:20.994Z,1004.86
2018-11-23T10:27:20.973Z,1004.90
2018-11-23T10:28:20.948Z,1004.83
2018-11-23T10:29:20.910Z,1004.83
2018-11-23T10:30:20.879Z,1004.82
2018-11-23T10:31:20.846Z,1004.77
2018-11-23T10:32:20.823Z,1004.77
2018-11-23T10:33:20.790Z,1004.77
2018-11-23T10:34:20.759Z,1004.73
2018-11-23T10:35:20.740Z,1004.76
2018-11-23T10:36:20.702Z,1004.73
2018-11-23T10:37:20.717Z,1004.73
2018-11-23T10:38:20.650Z,1004.70
2018-11-23T10:39:20.666Z,1004.68
2018-11-23T10:40:20.630Z,1004.68
2018-11-23T10:41:20.594Z,1004.64
2018-11-23T10:42:20.528Z,1004.65
2018-11-23T10:43:20.508Z,1004.65
2018-11-23T10:44:20.482Z,1004.64
2018-11-23T10:45:20.467Z,1004.69
2018-11-23T10:46:20.424Z,1004.65
2018-11-23T10:47:20.390Z,1004.64
2018-11-23T10:48:20.362Z,1004.67
2018-11-23T10:49:20.335Z,1004.65
2018-11-23T10:50:20.299Z,1004.62
2018-11-23T10:51:20.276Z,1004.60
2018-11-23T10:52:20.257Z,1004.65
2018-11-23T10:53:20.217Z,1004.65
2018-11-23T10:54:20.187Z,1004.63
2018-11-23T10:55:20.158Z,1004.62
2018-11-23T10:56:20.133Z,1004.59
2018-11-23T10:57:20.099Z,1004.58
2018-11-23T10:58:20.076Z,1004.58
2018-11-23T10:59:20.038Z,1004.55
2018-11-23T11:00:20.023Z,1004.56
2018-11-23T11:01:19.991Z,1004.52
2018-11-23T11:02:19.951Z,1004.51
2018-11-23T11:03:19.927Z,1004.55
2018-11-23T11:04:19.901Z,1004.57
2018-11-23T11:05:19.870Z,1004.51
2018-11-23T11:06:19.844Z,1004.53
2018-11-23T11:07:19.812Z,1004.51
2018-11-23T11:08:19.801Z,1004.46
2018-11-23T11:09:19.761Z,1004.43
2018-11-23T11:10:19.727Z,1004.44
2018-11-23T11:11:19.703Z,1004.37
2018-11-23T11:12:19.732Z,1004.39
2018-11-23T11:13:19.650Z,1004.38
2018-11-23T11:14:19.616Z,1004.35
2018-11-23T11:15:19.585Z,1004.32
2018-11-23T11:16:19.563Z,1004.30
2018-11-23T11:17:19.526Z,1004.33
2018-11-23T11:18:19.537Z,1004.31
2018-11-23T11:19:19.473Z,1004.27
2018-11-23T11:20:19.448Z,1004.26
2018-11-23T11:21:19.422Z,1004.26
2018-11-23T11:22:19.391Z,1004.29
2018-11-23T11:23:19.358Z,1004.22
2018-11-23T11:24:19.337Z,1004.25
2018-11-23T11:25:19.302Z,1004.25
2018-11-23T11:26:19.274Z,1004.21
2018-11-23T11:27:19.271Z,1004.28
2018-11-23T11:28:19.217Z,1004.21
2018-11-23T11:29:19.193Z,1004.25
2018-11-23T11:30:19.170Z,1004.19
2018-11-23T11:31:19.133Z,1004.20
2018-11-23T11:32:19.110Z,1004.18
2018-11-23T11:33:19.098Z,1004.15
2018-11-23T11:34:19.051Z,1004.14
2018-11-23T11:35:19.032Z,1004.17
2018-11-23T11:36:19.008Z,1004.13
2018-11-23T11:37:18.972Z,1004.10
2018-11-23T11:38:18.941Z,1004.13
2018-11-23T11:39:18.910Z,1004.03
2018-11-23T11:40:18.887Z,1004.06
2018-11-23T11:41:18.889Z,1004.03
2018-11-23T11:42:18.826Z,1004.01
2018-11-23T11:43:18.801Z,1004.01
2018-11-23T11:44:18.805Z,1004.00
2018-11-23T11:45:18.832Z,1004.00
2018-11-23T11:46:18.717Z,1003.97
2018-11-23T11:47:18.713Z,1004.00
2018-11-23T11:48:18.659Z,1003.99
2018-11-23T11:49:18.636Z,1003.95
2018-11-23T11:50:18.610Z,1003.89
2018-11-23T11:51:18.582Z,1003.86
2018-11-23T11:52:18.553Z,1003.84
2018-11-23T11:53:18.565Z,1003.83
2018-11-23T11:54:18.523Z,1003.84
2018-11-23T11:55:18.462Z,1003.85
2018-11-23T11:56:18.434Z,1003.84
2018-11-23T11:57:18.413Z,1003.84
2018-11-23T11:58:18.382Z,1003.80
2018-11-23T11:59:18.358Z,1003.80
2018-11-23T12:00:18.331Z,1003.78
2018-11-23T12:01:18.307Z,1003.77
2018-11-23T12:02:18.275Z,1003.81
2018-11-23T12:03:18.237Z,1003.78
2018-11-23T12:04:18.216Z,1003.79
2018-11-23T12:05:18.186Z,1003.82